Weather reports worldwide

Advertisment
Klippeneck, Germany (10818): temperature & dewpoint: 10.01.2018 08:00:00 - 16.01.2018 08:00:00 (CET)Klippeneck, Germany (10818): temperature 5cm & temperature -5cm: 10.01.2018 08:00:00 - 16.01.2018 08:00:00 (CET)Klippeneck, Germany (10818): temperature -20cm & temperature -100cm: 10.01.2018 08:00:00 - 16.01.2018 08:00:00 (CET)Klippeneck, Germany (10818): wind speed & gusts: 10.01.2018 08:00:00 - 16.01.2018 08:00:00 (CET)Klippeneck, Germany (10818): wind direction: 10.01.2018 08:00:00 - 16.01.2018 08:00:00 (CET)Klippeneck, Germany (10818): visibility: 10.01.2018 08:00:00 - 16.01.2018 08:00:00 (CET)Klippeneck, Germany (10818): sunshine duration: 10.01.2018 08:00:00 - 16.01.2018 08:00:00 (CET)Klippeneck, Germany (10818): precipitation: 10.01.2018 08:00:00 - 16.01.2018 08:00:00 (CET)
Date & Time tt [°C] td [°C] tt 5cm [°C] tt -5cm [°C] tt -20cm [°C] tt -100cm [°C] ff [km/h] ff [kn] fx [km/h] fx [kn] dd vv [km] sd [min] rr [mm]
16.01.2018 08:00:00 1,8 1,7 1,6 -0,4 0,9 4,8 39 21 66 36 WSW 0,2 0 0,8
16.01.2018 07:00:00 1,3 1,1 1,0 -0,4 0,9 4,8 39 21 61 33 SW 0,4 0 0,6
16.01.2018 06:00:00 1,5 1,0 1,2 -0,4 0,9 4,8 34 18 59 32 SW 32 0 0,0
16.01.2018 05:00:00 1,7 1,0 1,3 -0,4 0,9 4,8 31 17 53 29 WSW 7 0 0,1
16.01.2018 04:00:00 2,3 0,8 1,7 -0,4 0,9 4,8 37 20 66 35 WSW 70 0 0,0
16.01.2018 03:00:00 2,1 1,0 1,5 -0,4 0,9 4,8 41 22 68 37 WSW 38 0 0,0
16.01.2018 02:00:00 1,5 0,9 1,0 -0,4 0,9 4,8 30 16 51 28 WSW 58 0 0,0
16.01.2018 01:00:00 1,3 0,8 0,9 -0,4 0,9 4,9 36 19 69 37 SW 17 0 0,2
16.01.2018 00:00:00 1,2 0,7 0,8 -0,4 0,9 4,9 36 20 65 35 SW 17 0 0,0
15.01.2018 23:00:00 0,8 0,5 0,5 -0,4 0,9 4,9 33 18 58 32 SW 9 0 0,2
15.01.2018 22:00:00 0,4 0,1 0,1 -0,4 0,9 4,9 33 18 59 32 SW 2,9 0 0,6
15.01.2018 21:00:00 0,4 -0,1 0,0 -0,5 0,9 4,9 32 17 67 36 SW 1,7 0 0,4
15.01.2018 20:00:00 1,1 -0,8 0,5 -0,5 1,0 4,9 32 17 58 31 SW 8 0 0,1
15.01.2018 19:00:00 1,0 -2,5 0,6 -0,5 1,0 4,9 29 16 51 27 SSW 18 0 0,0
15.01.2018 18:00:00 1,0 -2,6 0,4 -0,5 1,0 4,9 31 17 55 30 SSW 20 0 0,0
15.01.2018 17:00:00 1,2 -2,8 0,6 -0,5 1,0 4,9 31 17 54 29 SSW 24 0 0,0
15.01.2018 16:00:00 1,0 -3,4 0,5 -0,5 1,0 4,9 24 13 41 22 SSW 26 0 0,0
15.01.2018 15:00:00 1,4 -2,6 1,1 -0,5 1,0 4,9 20 11 36 20 S 29 0 0,0
15.01.2018 14:00:00 2,3 -2,0 2,3 -0,6 1,0 4,9 19 11 31 17 SSW 39 0 0,0
15.01.2018 13:00:00 1,8 -2,1 1,9 -0,6 1,0 4,9 19 10 30 16 SSW 26 0 0,0
15.01.2018 12:00:00 -0,3 -2,7 0,1 -0,7 1,0 4,9 11 6 28 15 S 10 0 0,0
15.01.2018 11:00:00 1,1 -2,8 0,8 -0,8 1,0 4,9 15 8 25 14 SSW 29 19 0,0
15.01.2018 10:00:00 0,3 -4,3 0,9 -0,9 1,1 4,9 10 5 24 13 S 26 47 0,0
15.01.2018 09:00:00 -1,4 -5,3 -2,6 -1,0 1,1 4,9 13 7 23 12 S 24 0 0,0
15.01.2018 08:00:00 -3,5 -5,3 -4,0 -1,0 1,1 4,9 16 9 22 12 SE 9 0 0,0
15.01.2018 07:00:00 -2,1 -5,8 -4,3 -0,9 1,1 4,9 9 5 19 10 S 44 0 0,0
15.01.2018 06:00:00 -0,6 -5,3 -3,2 -0,9 1,2 4,9 12 7 26 14 S 52 0 0,0
15.01.2018 05:00:00 -0,3 -4,6 -3,4 -0,8 1,2 4,9 16 9 26 14 S 44 0 0,0
15.01.2018 04:00:00 -3,1 -5,5 -4,5 -0,7 1,2 4,9 12 6 28 15 S 14 0 0,0
15.01.2018 03:00:00 -0,9 -4,2 -3,5 -0,6 1,2 4,9 17 9 26 14 S 28 0 0,0
15.01.2018 02:00:00 -3,3 -4,6 -4,8 -0,5 1,2 4,9 14 8 20 11 SSE 9 0 0,0
15.01.2018 01:00:00 -3,7 -4,8 -4,7 -0,4 1,2 4,9 13 7 19 11 SE 7 0 0,0
15.01.2018 00:00:00 -3,9 -4,6 -4,6 -0,3 1,2 4,9 14 8 17 9 SE 3,8 0 0,0
14.01.2018 23:00:00 -3,8 -4,3 -4,6 -0,3 1,2 4,9 11 6 21 11 SE 2,3 0 0,0
14.01.2018 22:00:00 -3,5 -4,0 -3,6 -0,3 1,3 4,9 13 7 19 10 SE 0,5 0 0,0
14.01.2018 21:00:00 -3,2 -3,7 -3,0 -0,3 1,3 4,9 12 6 18 10 SSE 2,8 0 0,0
14.01.2018 20:00:00 -2,9 -3,8 -2,9 -0,3 1,3 4,9 11 6 16 8 SE 6 0 0,0
14.01.2018 19:00:00 -2,5 -3,6 -2,4 -0,3 1,3 4,9 7 4 11 6 SE 8 0 0,0
14.01.2018 18:00:00 -2,1 -3,5 -2,0 -0,3 1,3 4,9 6 3 10 5 SE 8 0 0,0
14.01.2018 17:00:00 -1,7 -3,5 -1,6 -0,3 1,3 4,9 6 3 9 5 E 11 0 0,0
14.01.2018 16:00:00 -1,4 -3,2 -1,1 -0,3 1,3 4,9 5 3 10 5 WSW 12 0 0,0
14.01.2018 15:00:00 -1,1 -3,3 -0,6 -0,3 1,3 4,9 5 3 13 7 ESE 13 0 0,0
14.01.2018 14:00:00 -1,6 -3,6 -1,2 -0,3 1,3 5,0 6 3 11 6 ENE 12 0 0,0
14.01.2018 13:00:00 -2,0 -3,6 -1,3 -0,3 1,3 5,0 6 4 12 7 E 8 0 0,0
14.01.2018 12:00:00 -2,1 -3,5 -1,6 -0,4 1,4 5,0 6 3 13 7 E 7 0 0,0
14.01.2018 11:00:00 -2,5 -3,5 -1,8 -0,4 1,4 5,0 7 4 11 6 ESE 4,5 0 0,0
14.01.2018 10:00:00 -2,8 -4,0 -2,4 -0,4 1,4 5,0 7 4 11 6 E 6 0 0,0
14.01.2018 09:00:00 -3,1 -3,8 -2,9 -0,4 1,4 5,0 7 4 11 6 ESE 4,8 0 0,0
14.01.2018 08:00:00 -3,1 -4,0 -3,2 -0,4 1,4 5,0 8 4 11 6 E 5 0 0,0
14.01.2018 07:00:00 -3,0 -3,7 -2,9 -0,4 1,5 5,0 6 4 13 7 SE 3,9 0 0,0
14.01.2018 06:00:00 -3,0 -3,7 -2,9 -0,4 1,5 5,0 6 4 14 8 E 3,0 0 0,0
14.01.2018 05:00:00 -3,1 -3,5 -3,1 -0,3 1,5 5,0 9 5 15 8 ESE 1,1 0 0,0
14.01.2018 04:00:00 -3,0 -3,4 -3,3 -0,3 1,6 5,0 10 5 18 10 E 2,1 0 0,0
14.01.2018 03:00:00 -3,0 -3,7 -3,6 -0,3 1,6 5,0 15 8 23 13 E 3,9 0 0,0
14.01.2018 02:00:00 -3,0 -3,8 -3,7 -0,2 1,6 5,0 16 8 24 13 E 4,7 0 0,0
14.01.2018 01:00:00 -3,3 -4,3 -4,4 -0,1 1,6 5,0 12 7 24 13 E 6 0 0,0
14.01.2018 00:00:00 -2,8 -4,0 -3,7 -0,1 1,7 5,0 16 9 24 13 E 7 0 0,0
13.01.2018 23:00:00 -2,7 -4,0 -3,6 0,0 1,7 5,0 17 9 22 12 ESE 7 0 0,0
13.01.2018 22:00:00 -2,4 -3,6 -3,1 0,1 1,7 5,0 16 9 26 14 E 7 0 0,0
13.01.2018 21:00:00 -2,3 -3,6 -3,1 0,1 1,7 5,0 13 7 25 14 E 8 0 0,0
13.01.2018 20:00:00 -1,9 -3,5 -2,1 0,2 1,7 5,0 13 7 21 12 ESE 9 0 0,0
13.01.2018 19:00:00 -1,7 -3,6 -1,9 0,2 1,7 5,0 13 7 22 12 E 11 0 0,0
13.01.2018 18:00:00 -1,6 -3,4 -1,7 0,2 1,8 5,0 14 8 23 12 E 10 0 0,0
13.01.2018 17:00:00 -1,5 -3,4 -1,5 0,2 1,8 5,0 11 6 22 12 ESE 11 0 0,0
13.01.2018 16:00:00 -1,4 -3,1 -1,3 0,3 1,8 5,0 13 7 21 12 E 8 0 0,0
13.01.2018 15:00:00 -1,4 -3,2 -1,0 0,3 1,8 5,0 12 6 20 11 ESE 10 0 0,0
13.01.2018 14:00:00 -1,3 -3,1 -1,0 0,3 1,8 5,0 13 7 24 13 ESE 10 0 0,0
13.01.2018 13:00:00 -1,3 -2,6 -1,0 0,3 1,8 5,0 14 8 29 16 E 8 0 0,0
13.01.2018 12:00:00 -1,4 -2,8 -1,1 0,3 1,9 5,0 19 10 31 17 E 9 0 0,0
13.01.2018 11:00:00 -1,5 -2,9 -1,3 0,3 1,9 5,0 18 10 35 19 E 8 0 0,0
13.01.2018 10:00:00 -1,6 -3,0 -1,5 0,3 1,9 5,0 22 12 34 19 E 10 0 0,0
13.01.2018 09:00:00 -1,9 -3,0 -1,8 0,3 1,9 5,0 17 9 30 16 E 6 0 0,0
13.01.2018 08:00:00 -1,9 -3,1 -1,9 0,3 2,0 5,0 20 11 32 18 E 8 0 0,0
13.01.2018 07:00:00 -1,8 -2,9 -1,8 0,3 2,0 5,0 21 11 34 19 E 7 0 0,0
13.01.2018 06:00:00 -1,8 -2,7 -1,7 0,4 2,0 5,0 16 9 27 14 E 5 0 0,0
13.01.2018 05:00:00 -1,8 -2,8 -1,7 0,4 2,1 5,0 15 8 29 16 E 5 0 0,0
13.01.2018 04:00:00 -1,7 -2,6 -1,6 0,4 2,1 5,0 14 7 29 16 E 4,4 0 0,0
13.01.2018 03:00:00 -1,7 -2,6 -1,6 0,4 2,1 5,0 21 12 32 17 E 5 0 0,0
13.01.2018 02:00:00 -1,6 -2,3 -1,5 0,4 2,2 5,0 19 10 30 16 E 3,5 0 0,0
13.01.2018 01:00:00 -1,4 -1,9 -1,3 0,5 2,2 5,0 14 7 31 17 E 2,4 0 0,0
13.01.2018 00:00:00 -1,2 -2,0 -1,1 0,5 2,3 5,0 15 8 37 20 E 3,7 0 0,0
12.01.2018 23:00:00 -1,1 -1,9 -1,1 0,6 2,3 5,0 19 11 33 18 E 4,8 0 0,0
12.01.2018 22:00:00 -1,1 -1,8 -1,0 0,6 2,4 5,0 19 11 33 18 E 4,4 0 0,0
12.01.2018 21:00:00 -1,3 -2,0 -1,2 0,7 2,4 5,0 11 6 29 16 E 3,9 0 0,0
12.01.2018 20:00:00 -1,4 -1,9 -1,3 0,8 2,4 5,0 11 6 21 11 E 3,3 0 0,0
12.01.2018 19:00:00 -1,5 -1,9 -1,3 1,0 2,5 5,0 9 5 24 13 E 0,9 0 0,0
12.01.2018 18:00:00 -1,5 -2,2 -1,4 1,4 2,4 5,0 10 5 20 11 E 4,7 0 0,0
12.01.2018 17:00:00 -0,9 -2,1 -0,8 1,9 2,4 5,0 9 5 15 8 E 10 0 0,0
12.01.2018 16:00:00 -0,5 -2,1 0,0 2,5 2,3 5,0 4 2 18 10 NNE 11 20 0,0
12.01.2018 15:00:00 0,3 -1,8 1,9 2,6 2,2 5,0 8 5 14 8 E 18 6 0,0
12.01.2018 14:00:00 0,1 -1,8 1,3 2,5 2,1 5,0 3 2 10 5 NNE 16 1 0,0
12.01.2018 13:00:00 -0,8 -2,5 0,4 2,1 2,1 5,0 6 3 11 6 NE 19 0 0,0
12.01.2018 12:00:00 -0,8 -1,6 0,6 1,2 2,1 5,0 6 3 13 7 ENE 11 1 0,0
12.01.2018 11:00:00 -1,1 -1,6 -0,4 0,6 2,1 5,0 9 5 14 8 E 2,6 0 0,0
12.01.2018 10:00:00 -1,5 -1,9 -1,2 0,5 2,2 5,0 9 5 14 8 E 0,2 0 0,0
12.01.2018 09:00:00 -1,3 -1,5 -1,1 0,5 2,2 5,0 7 4 14 7 ENE 0,3 0 0,0
12.01.2018 08:00:00 -1,1 -1,3 -1,0 0,5 2,2 5,0 6 3 16 8 ENE 0,2 0 0,0
12.01.2018 07:00:00 -1,1 -1,3 -1,0 0,5 2,2 5,0 6 4 12 6 NE 0,2 0 0,0
12.01.2018 06:00:00 -0,8 -1,0 -0,7 0,6 2,3 5,0 7 4 10 6 ENE 0,2 0 0,0
12.01.2018 05:00:00 -0,6 -0,9 -0,6 0,6 2,3 5,0 3 2 11 6 ENE 0,3 0 0,0
12.01.2018 04:00:00 -0,3 -0,7 -0,4 0,6 2,4 5,0 6 4 15 8 E 1,2 0 0,0
12.01.2018 03:00:00 0,1 -0,1 0,0 0,6 2,4 5,0 6 4 17 9 ENE 0,3 0 0,0
12.01.2018 02:00:00 0,2 -0,1 0,1 0,7 2,5 5,0 8 5 15 8 NNW 0,1 0 0,0
12.01.2018 01:00:00 0,5 0,2 0,2 0,7 2,5 5,0 8 4 17 9 N 0,2 0 0,0
12.01.2018 00:00:00 0,5 0,0 -0,6 0,7 2,6 5,0 7 4 14 8 N 2,7 0 0,0
11.01.2018 23:00:00 1,1 0,2 0,1 0,8 2,6 5,0 6 3 14 7 NNE 9 0 0,0
11.01.2018 22:00:00 1,0 0,3 -0,1 0,8 2,7 5,0 6 4 17 9 NE 8 0 0,0
11.01.2018 21:00:00 1,4 0,4 0,2 0,9 2,8 5,0 8 5 21 11 NNE 11 0 0,0
11.01.2018 20:00:00 0,4 -0,9 -1,3 1,1 2,8 5,0 8 5 17 9 NE 17 0 0,0
11.01.2018 19:00:00 2,2 -0,2 1,3 1,7 2,9 5,0 10 5 19 10 ENE 35 0 0,0
11.01.2018 18:00:00 2,2 -0,3 1,4 1,9 2,8 5,0 13 7 17 9 ENE 33 0 0,0
11.01.2018 17:00:00 2,5 -1,6 1,0 2,7 2,7 5,0 12 6 18 10 NE 70 2 0,0
11.01.2018 16:00:00 3,5 -1,1 2,6 3,8 2,6 5,0 8 4 16 9 ENE 70 0 0,0
11.01.2018 15:00:00 4,3 -0,4 4,5 4,0 2,4 5,0 6 3 13 7 NE 70 0 0,0
11.01.2018 14:00:00 4,0 0,5 4,4 4,2 2,3 5,0 5 3 10 5 NW 70 15 0,0
11.01.2018 13:00:00 5,6 0,0 9,5 3,4 2,2 5,0 6 3 13 7 WNW 39 25 0,0
11.01.2018 12:00:00 4,5 -0,3 7,1 2,2 2,2 5,0 4 2 13 7 NW 70 41 0,0
11.01.2018 11:00:00 4,9 -0,5 7,0 0,5 2,2 5,0 8 4 13 7 ESE 60 24 0,0
11.01.2018 10:00:00 3,0 -0,4 2,5 0,5 2,2 5,0 10 5 14 8 ESE 70 23 0,0
11.01.2018 09:00:00 1,6 -0,7 0,8 0,5 2,3 5,0 10 5 12 7 ENE 70 1 0,0
11.01.2018 08:00:00 0,4 -1,0 -0,7 0,5 2,3 5,0 5 3 8 4 E 70 0 0,0
11.01.2018 07:00:00 1,4 -0,5 -1,5 0,5 2,4 5,0 3 2 9 5 SW 70 0 0,0
11.01.2018 06:00:00 1,1 -0,8 -0,6 0,6 2,4 5,0 7 4 10 6 ESE 70 0 0,0
11.01.2018 05:00:00 2,1 -0,7 0,6 0,6 2,5 5,0 7 4 12 7 S 70 0 0,0
11.01.2018 04:00:00 2,2 -0,5 0,6 0,6 2,5 5,0 7 4 12 7 S 70 0 0,0
11.01.2018 03:00:00 0,2 -1,0 -0,5 0,7 2,6 5,0 7 4 10 5 SSE 66 0 0,0
11.01.2018 02:00:00 -0,2 -1,6 -2,5 0,7 2,6 5,0 0 0 8 5 N 70 0 0,0
11.01.2018 01:00:00 1,2 -1,0 -0,1 0,8 2,7 5,0 6 3 14 7 S 70 0 0,0
11.01.2018 00:00:00 1,9 -0,9 -0,1 0,9 2,8 5,0 8 4 16 8 SSW 70 0 0,0
10.01.2018 23:00:00 1,4 -1,1 -2,0 1,2 2,8 5,0 2 1 16 9 WSW 66 0 0,0
10.01.2018 22:00:00 3,0 -0,8 2,0 1,6 2,8 5,0 13 7 18 10 SSW 70 0 0,0
10.01.2018 21:00:00 2,9 -0,6 1,8 1,8 2,8 5,0 13 7 23 12 SW 70 0 0,0
10.01.2018 20:00:00 3,1 -0,5 2,4 1,9 2,8 5,0 11 6 21 11 SSW 70 0 0,0
10.01.2018 19:00:00 3,5 -1,8 2,7 2,1 2,8 5,0 10 6 17 9 S 70 0 0,0
10.01.2018 18:00:00 3,5 -1,4 2,7 2,4 2,8 5,0 7 4 21 11 S 70 0 0,0
10.01.2018 17:00:00 4,0 -1,5 3,1 2,9 2,7 5,0 8 5 18 10 S 70 0 0,0
10.01.2018 16:00:00 4,5 -1,4 4,0 3,3 2,6 5,0 10 5 21 11 SSW 70 0 0,0
10.01.2018 15:00:00 4,7 -0,8 4,6 3,5 2,4 5,0 12 7 21 11 SSW 64 1 0,0
10.01.2018 14:00:00 4,6 -0,6 4,9 3,7 2,3 5,0 11 6 18 10 SE 45 8 0,0
10.01.2018 13:00:00 5,9 -1,0 8,0 2,9 2,2 5,0 13 7 21 11 SE 33 53 0,0
10.01.2018 12:00:00 4,7 -0,7 5,7 1,5 2,2 5,0 16 9 21 11 SE 26 60 0,0
10.01.2018 11:00:00 4,8 0,1 6,0 0,6 2,3 5,0 13 7 22 12 SE 37 60 0,0
10.01.2018 10:00:00 2,7 0,2 2,8 0,5 2,3 5,0 18 10 23 12 SE 17 48 0,0
10.01.2018 09:00:00 2,1 -0,5 0,9 0,5 2,4 5,0 16 8 20 11 SE 31 0 0,0
10.01.2018 08:00:00 3,1 -3,3 0,9 0,5 2,4 5,0 7 4 14 8 S 70 0 0,0

tt = temperature
td = dewpoint
tt 5cm = temperature 5cm
tt -5cm = temperature -5cm
tt -20cm = temperature -20cm
tt -100cm = temperature -100cm
ff = wind speed
fx = gusts
dd = wind direction
vv = visibility
sd = sunshine duration
rr = precipitation

Next stations